createdAt,value
2022-08-09T00:01:55.222Z,23.60
2022-08-09T00:04:33.843Z,23.60
2022-08-09T00:07:07.879Z,23.60
2022-08-09T00:09:40.068Z,23.50
2022-08-09T00:12:22.482Z,23.50
2022-08-09T00:14:56.698Z,23.40
2022-08-09T00:18:09.342Z,23.40
2022-08-09T00:20:12.865Z,23.40
2022-08-09T00:22:42.044Z,23.40
2022-08-09T00:25:12.655Z,23.30
2022-08-09T00:27:43.040Z,23.30
2022-08-09T00:30:24.837Z,23.30
2022-08-09T00:32:57.832Z,23.20
2022-08-09T00:35:29.985Z,23.20
2022-08-09T00:38:12.577Z,23.10
2022-08-09T00:40:40.371Z,23.10
2022-08-09T00:44:13.947Z,23.10
2022-08-09T00:46:55.268Z,23.10
2022-08-09T00:49:02.521Z,23.00
2022-08-09T00:51:33.762Z,23.00
2022-08-09T00:54:03.863Z,22.90
2022-08-09T00:56:37.826Z,22.90
2022-08-09T00:59:08.775Z,22.90
2022-08-09T01:01:44.388Z,22.80
2022-08-09T01:04:23.882Z,22.80
2022-08-09T01:07:03.686Z,22.80
2022-08-09T01:09:57.618Z,22.70
2022-08-09T01:12:42.670Z,22.70
2022-08-09T01:15:31.240Z,22.70
2022-08-09T01:18:08.451Z,22.70
2022-08-09T01:21:10.007Z,22.70
2022-08-09T01:24:03.398Z,22.60
2022-08-09T01:26:53.003Z,22.60
2022-08-09T01:29:41.121Z,22.60
2022-08-09T01:32:31.576Z,22.50
2022-08-09T01:35:38.748Z,22.50
2022-08-09T01:38:15.523Z,22.50
2022-08-09T01:41:04.806Z,22.50
2022-08-09T01:43:50.827Z,22.40
2022-08-09T01:46:27.323Z,22.40
2022-08-09T01:49:09.974Z,22.40
2022-08-09T01:51:44.336Z,22.40
2022-08-09T01:54:23.158Z,22.40
2022-08-09T01:56:52.467Z,22.30
2022-08-09T01:59:24.256Z,22.30
2022-08-09T02:02:01.032Z,22.30
2022-08-09T02:04:33.049Z,22.20
2022-08-09T02:08:00.121Z,22.30
2022-08-09T02:10:17.937Z,22.20
2022-08-09T02:12:46.897Z,22.20
2022-08-09T02:15:19.562Z,22.20
2022-08-09T02:18:00.489Z,22.20
2022-08-09T02:20:45.653Z,22.20
2022-08-09T02:23:47.993Z,22.10
2022-08-09T02:26:24.988Z,22.10
2022-08-09T02:29:06.640Z,22.10
2022-08-09T02:31:43.390Z,22.10
2022-08-09T02:34:41.333Z,22.10
2022-08-09T02:37:21.950Z,22.00
2022-08-09T02:40:01.494Z,22.00
2022-08-09T02:42:38.556Z,22.00
2022-08-09T02:45:26.503Z,22.00
2022-08-09T02:47:59.144Z,22.00
2022-08-09T02:50:37.430Z,21.90
2022-08-09T02:53:27.096Z,21.90
2022-08-09T02:55:59.046Z,21.90
2022-08-09T02:58:37.645Z,21.90
2022-08-09T03:01:11.148Z,21.80
2022-08-09T03:04:18.967Z,21.80
2022-08-09T03:06:38.680Z,21.80
2022-08-09T03:09:13.472Z,21.80
2022-08-09T03:12:06.054Z,21.80
2022-08-09T03:14:36.731Z,21.70
2022-08-09T03:17:06.478Z,21.70
2022-08-09T03:19:57.775Z,21.70
2022-08-09T03:22:33.348Z,21.70
2022-08-09T03:25:26.603Z,21.70
2022-08-09T03:28:04.715Z,21.60
2022-08-09T03:30:43.404Z,21.60
2022-08-09T03:33:17.548Z,21.60
2022-08-09T03:36:12.281Z,21.60
2022-08-09T03:38:45.010Z,21.50
2022-08-09T03:41:18.446Z,21.50
2022-08-09T03:44:03.801Z,21.50
2022-08-09T03:46:38.360Z,21.50
2022-08-09T03:49:09.226Z,21.40
2022-08-09T03:51:58.522Z,21.40
2022-08-09T03:54:38.654Z,21.40
2022-08-09T03:57:20.199Z,21.30
2022-08-09T03:59:55.832Z,21.30
2022-08-09T04:02:32.272Z,21.30
2022-08-09T04:05:06.737Z,21.30
2022-08-09T04:07:53.386Z,21.30
2022-08-09T04:10:29.635Z,21.20
2022-08-09T04:13:01.330Z,21.20
2022-08-09T04:15:51.992Z,21.20
2022-08-09T04:18:22.532Z,21.10
2022-08-09T04:20:52.108Z,21.10
2022-08-09T04:23:24.859Z,21.10
2022-08-09T04:25:54.179Z,21.00
2022-08-09T04:28:34.163Z,21.00
2022-08-09T04:31:08.588Z,21.10
2022-08-09T04:33:52.012Z,21.10
2022-08-09T04:36:28.505Z,21.00
2022-08-09T04:38:59.219Z,21.00
2022-08-09T04:41:32.236Z,21.00
2022-08-09T04:44:07.120Z,21.00
2022-08-09T04:46:59.580Z,21.00
2022-08-09T04:49:52.176Z,21.00
2022-08-09T04:52:27.832Z,20.90
2022-08-09T04:55:02.483Z,20.90
2022-08-09T04:57:58.731Z,20.90
2022-08-09T05:00:23.938Z,21.00
2022-08-09T05:02:56.662Z,21.00
2022-08-09T05:05:31.913Z,21.00
2022-08-09T05:08:14.030Z,21.00
2022-08-09T05:10:42.313Z,21.00
2022-08-09T05:13:10.885Z,21.00
2022-08-09T05:15:47.664Z,21.00
2022-08-09T05:18:55.540Z,21.00
2022-08-09T05:21:09.740Z,21.10
2022-08-09T05:23:55.414Z,21.10
2022-08-09T05:26:35.891Z,21.10
2022-08-09T05:29:07.212Z,21.10
2022-08-09T05:31:57.186Z,21.10
2022-08-09T05:34:33.789Z,21.10
2022-08-09T05:37:06.917Z,21.20
2022-08-09T05:39:43.537Z,21.20
2022-08-09T05:42:21.803Z,21.20
2022-08-09T05:45:01.215Z,21.20
2022-08-09T05:47:30.452Z,21.30
2022-08-09T05:50:32.301Z,21.30
2022-08-09T05:52:52.306Z,21.30
2022-08-09T05:55:21.943Z,21.30
2022-08-09T05:57:58.462Z,21.40
2022-08-09T06:00:28.764Z,21.40
2022-08-09T06:02:58.190Z,21.40
2022-08-09T06:05:57.369Z,21.50
2022-08-09T06:08:24.704Z,21.50
2022-08-09T06:11:03.447Z,21.50
2022-08-09T06:13:47.759Z,21.60
2022-08-09T06:16:19.306Z,21.60
2022-08-09T06:18:53.031Z,21.70
2022-08-09T06:21:20.723Z,21.70
2022-08-09T06:23:58.382Z,21.80
2022-08-09T06:26:31.561Z,21.80
2022-08-09T06:29:05.154Z,21.90
2022-08-09T06:31:39.778Z,21.90
2022-08-09T06:34:25.960Z,22.00
2022-08-09T06:36:59.254Z,22.00
2022-08-09T06:39:49.069Z,22.00
2022-08-09T06:42:24.924Z,22.10
2022-08-09T06:44:58.281Z,22.20
2022-08-09T06:47:25.534Z,22.20
2022-08-09T06:50:14.782Z,22.20
2022-08-09T06:52:47.232Z,22.30
2022-08-09T06:55:22.435Z,22.30
2022-08-09T06:58:02.695Z,22.40
2022-08-09T07:00:54.464Z,22.40
2022-08-09T07:03:26.857Z,22.40
2022-08-09T07:06:04.845Z,22.60
2022-08-09T07:08:39.658Z,22.60
2022-08-09T07:11:07.488Z,22.60
2022-08-09T07:13:45.380Z,22.70
2022-08-09T07:16:42.430Z,22.80
2022-08-09T07:19:22.847Z,22.80
2022-08-09T07:21:59.694Z,22.90
2022-08-09T07:24:32.215Z,23.00
2022-08-09T07:27:27.344Z,23.00
2022-08-09T07:30:05.675Z,23.10
2022-08-09T07:32:36.267Z,23.20
2022-08-09T07:35:10.004Z,23.30
2022-08-09T07:37:45.644Z,23.40
2022-08-09T07:40:20.240Z,23.40
2022-08-09T07:43:00.723Z,23.50
2022-08-09T07:45:37.445Z,23.60
2022-08-09T07:48:06.848Z,23.70
2022-08-09T07:50:36.599Z,23.80
2022-08-09T07:53:05.257Z,23.90
2022-08-09T07:55:41.351Z,24.00
2022-08-09T07:58:26.050Z,24.00
2022-08-09T08:01:06.621Z,24.20
2022-08-09T08:03:38.812Z,24.20
2022-08-09T08:06:09.464Z,24.30
2022-08-09T08:09:02.067Z,24.40
2022-08-09T08:12:11.149Z,24.40
2022-08-09T08:14:27.475Z,24.50
2022-08-09T08:17:00.553Z,24.60
2022-08-09T08:19:31.232Z,24.70
2022-08-09T08:22:00.688Z,24.80
2022-08-09T08:24:35.368Z,24.90
2022-08-09T08:27:16.703Z,24.90
2022-08-09T08:29:49.954Z,25.10
2022-08-09T08:32:29.091Z,25.20
2022-08-09T08:34:58.535Z,25.20
2022-08-09T08:37:41.593Z,25.30
2022-08-09T08:40:19.661Z,25.40
2022-08-09T08:42:49.117Z,25.60
2022-08-09T08:45:53.208Z,25.70
2022-08-09T08:48:23.645Z,25.80
2022-08-09T08:51:01.376Z,25.90
2022-08-09T08:53:36.803Z,25.90
2022-08-09T08:56:16.794Z,26.10
2022-08-09T08:58:55.387Z,26.20
2022-08-09T09:01:24.964Z,26.30
2022-08-09T09:04:11.309Z,26.40
2022-08-09T09:06:46.231Z,26.50
2022-08-09T09:09:58.131Z,26.60
2022-08-09T09:12:16.502Z,26.60
2022-08-09T09:14:47.852Z,26.80
2022-08-09T09:17:18.264Z,26.80
2022-08-09T09:19:48.111Z,27.00
2022-08-09T09:22:26.526Z,27.00
2022-08-09T09:25:27.726Z,27.10
2022-08-09T09:28:05.951Z,27.30
2022-08-09T09:30:52.137Z,27.30
2022-08-09T09:33:30.287Z,27.50
2022-08-09T09:36:20.168Z,27.50
2022-08-09T09:38:57.909Z,27.70
2022-08-09T09:41:27.747Z,27.80
2022-08-09T09:44:10.375Z,27.80
2022-08-09T09:46:50.494Z,27.90
2022-08-09T09:49:31.594Z,28.00
2022-08-09T09:52:16.547Z,28.10
2022-08-09T09:55:16.448Z,28.10
2022-08-09T09:58:19.029Z,28.20
2022-08-09T10:00:58.826Z,28.30
2022-08-09T10:03:44.775Z,28.40
2022-08-09T10:06:23.571Z,28.50
2022-08-09T10:09:11.985Z,28.60
2022-08-09T10:12:04.536Z,28.80
2022-08-09T10:14:40.015Z,28.80
2022-08-09T10:17:39.971Z,29.00
2022-08-09T10:20:32.908Z,29.00
2022-08-09T10:23:22.758Z,29.10
2022-08-09T10:26:06.586Z,29.30
2022-08-09T10:28:40.224Z,29.40
2022-08-09T10:34:10.809Z,29.60
2022-08-09T10:36:57.696Z,29.70
2022-08-09T10:39:28.384Z,29.80
2022-08-09T10:41:55.617Z,29.90
2022-08-09T10:44:27.948Z,30.00
2022-08-09T10:47:04.021Z,30.10
2022-08-09T10:50:10.009Z,30.30
2022-08-09T10:53:28.570Z,30.40
2022-08-09T10:56:26.204Z,30.60
2022-08-09T10:58:58.582Z,30.70
2022-08-09T11:03:10.659Z,30.90
2022-08-09T11:04:31.531Z,31.10
2022-08-09T11:07:00.364Z,31.30
2022-08-09T11:09:47.553Z,31.40
2022-08-09T11:12:33.542Z,31.50
2022-08-09T11:15:34.179Z,31.70
2022-08-09T11:18:48.352Z,31.90
2022-08-09T11:22:10.377Z,32.10
2022-08-09T11:24:57.718Z,32.30
2022-08-09T11:28:02.902Z,32.60
2022-08-09T11:30:32.757Z,32.70
2022-08-09T11:33:19.657Z,32.90
2022-08-09T11:35:51.706Z,33.10
2022-08-09T11:38:32.148Z,33.30
2022-08-09T11:41:12.991Z,33.50
2022-08-09T11:43:48.723Z,33.60
2022-08-09T11:46:26.777Z,33.80
2022-08-09T11:49:05.393Z,34.00
2022-08-09T11:53:02.283Z,34.20
2022-08-09T11:55:39.880Z,34.40
2022-08-09T11:58:19.798Z,34.60
2022-08-09T12:01:01.475Z,34.80
2022-08-09T12:03:56.038Z,35.00
2022-08-09T12:06:26.829Z,35.20
2022-08-09T12:09:19.687Z,35.40
2022-08-09T12:12:11.945Z,35.60
2022-08-09T12:15:07.205Z,35.80
2022-08-09T12:17:52.663Z,36.10
2022-08-09T12:20:30.619Z,36.40
2022-08-09T12:23:02.884Z,36.60
2022-08-09T12:25:37.541Z,36.90
2022-08-09T12:29:10.019Z,37.20
2022-08-09T12:31:58.703Z,37.40
2022-08-09T12:34:12.762Z,37.50
2022-08-09T12:36:59.102Z,37.80
2022-08-09T12:39:43.401Z,38.00
2022-08-09T12:42:16.299Z,38.30
2022-08-09T12:44:52.281Z,38.50
2022-08-09T12:47:25.108Z,38.80
2022-08-09T12:50:11.320Z,39.00
2022-08-09T12:52:58.518Z,39.20
2022-08-09T12:56:14.374Z,39.40
2022-08-09T12:58:32.005Z,39.60
2022-08-09T13:01:04.278Z,39.90
2022-08-09T13:03:56.942Z,40.00
2022-08-09T13:06:40.934Z,40.20
2022-08-09T13:09:24.160Z,40.40
2022-08-09T13:12:02.990Z,40.50
2022-08-09T13:14:43.893Z,40.70
2022-08-09T13:17:58.763Z,40.90
2022-08-09T13:20:18.870Z,41.20
2022-08-09T13:23:05.463Z,41.30
2022-08-09T13:25:54.770Z,41.30
2022-08-09T13:28:33.699Z,41.50
2022-08-09T13:32:19.870Z,41.50
2022-08-09T13:34:03.914Z,41.60
2022-08-09T13:36:40.848Z,41.70
2022-08-09T13:41:18.989Z,41.90
2022-08-09T13:42:13.044Z,42.10
2022-08-09T13:44:45.667Z,42.30
2022-08-09T13:47:30.982Z,42.50
2022-08-09T13:50:30.371Z,42.60
2022-08-09T13:53:00.809Z,42.70
2022-08-09T13:55:30.578Z,42.80
2022-08-09T13:58:00.536Z,42.90
2022-08-09T14:00:30.338Z,43.10
2022-08-09T14:03:03.305Z,43.20
2022-08-09T14:05:56.667Z,43.20
2022-08-09T14:08:34.659Z,43.20
2022-08-09T14:11:01.554Z,43.20
2022-08-09T14:14:23.709Z,43.30
2022-08-09T14:16:29.064Z,43.50
2022-08-09T14:18:58.083Z,43.60
2022-08-09T14:21:29.177Z,43.70
2022-08-09T14:24:01.100Z,43.60
2022-08-09T14:26:35.426Z,43.70
2022-08-09T14:30:18.661Z,43.70
2022-08-09T14:31:58.788Z,43.80
2022-08-09T14:34:33.145Z,43.90
2022-08-09T14:37:09.572Z,44.00
2022-08-09T14:39:47.012Z,44.20
2022-08-09T14:42:30.204Z,44.10
2022-08-09T14:46:57.964Z,44.10
2022-08-09T14:48:00.192Z,44.00
2022-08-09T14:50:37.130Z,44.00
2022-08-09T14:53:11.653Z,44.00
2022-08-09T14:55:47.840Z,44.00
2022-08-09T14:58:17.619Z,44.20
2022-08-09T15:00:48.008Z,44.30
2022-08-09T15:03:21.036Z,44.40
2022-08-09T15:05:55.643Z,44.60
2022-08-09T15:08:31.745Z,44.70
2022-08-09T15:11:01.071Z,44.90
2022-08-09T15:13:55.809Z,45.00
2022-08-09T15:16:23.817Z,45.20
2022-08-09T15:19:05.769Z,45.20
2022-08-09T15:21:57.310Z,45.20
2022-08-09T15:24:28.188Z,45.30
2022-08-09T15:26:55.208Z,45.30
2022-08-09T15:30:56.928Z,45.30
2022-08-09T15:32:28.786Z,45.40
2022-08-09T15:35:00.229Z,45.30
2022-08-09T15:37:37.085Z,45.20
2022-08-09T15:40:31.662Z,45.10
2022-08-09T15:43:02.458Z,45.00
2022-08-09T15:46:08.131Z,44.80
2022-08-09T15:48:28.785Z,44.80
2022-08-09T15:50:57.708Z,44.80
2022-08-09T15:54:05.443Z,44.90
2022-08-09T15:56:28.427Z,45.00
2022-08-09T15:58:59.167Z,45.00
2022-08-09T16:01:31.305Z,44.90
2022-08-09T16:04:02.143Z,44.60
2022-08-09T16:06:35.514Z,44.20
2022-08-09T16:09:06.183Z,43.70
2022-08-09T16:11:33.945Z,43.10
2022-08-09T16:14:07.929Z,42.50
2022-08-09T16:16:38.107Z,42.20
2022-08-09T16:19:08.698Z,42.00
2022-08-09T16:21:40.888Z,41.90
2022-08-09T16:24:29.910Z,41.80
2022-08-09T16:26:59.654Z,41.90
2022-08-09T16:29:37.423Z,41.90
2022-08-09T16:32:33.222Z,41.90
2022-08-09T16:35:07.530Z,41.90
2022-08-09T16:37:54.017Z,41.60
2022-08-09T16:40:29.931Z,41.40
2022-08-09T16:43:07.249Z,41.20
2022-08-09T16:45:44.204Z,41.00
2022-08-09T16:48:39.219Z,40.80
2022-08-09T16:51:08.133Z,40.50
2022-08-09T16:53:56.232Z,40.10
2022-08-09T16:56:30.667Z,39.80
2022-08-09T16:59:06.795Z,39.40
2022-08-09T17:01:37.911Z,39.10
2022-08-09T17:04:10.237Z,38.80
2022-08-09T17:08:41.527Z,38.50
2022-08-09T17:09:47.113Z,38.10
2022-08-09T17:12:19.732Z,37.70
2022-08-09T17:14:48.473Z,37.30
2022-08-09T17:17:26.642Z,37.10
2022-08-09T17:20:28.533Z,36.80
2022-08-09T17:22:49.957Z,36.60
2022-08-09T17:25:19.958Z,36.50
2022-08-09T17:27:55.128Z,36.30
2022-08-09T17:30:28.858Z,36.10
2022-08-09T17:33:05.136Z,35.90
2022-08-09T17:35:48.558Z,35.70
2022-08-09T17:38:30.721Z,35.40
2022-08-09T17:41:03.093Z,35.20
2022-08-09T17:43:37.359Z,35.00
2022-08-09T17:46:09.214Z,34.80
2022-08-09T17:48:52.308Z,34.60
2022-08-09T17:51:20.821Z,34.40
2022-08-09T17:53:54.786Z,34.20
2022-08-09T17:56:32.309Z,34.00
2022-08-09T17:59:09.254Z,33.80
2022-08-09T18:02:08.005Z,33.70
2022-08-09T18:04:36.251Z,33.60
2022-08-09T18:07:07.681Z,33.40
2022-08-09T18:09:41.620Z,33.30
2022-08-09T18:12:17.342Z,33.10
2022-08-09T18:14:54.808Z,33.00
2022-08-09T18:18:01.268Z,32.80
2022-08-09T18:20:59.614Z,32.60
2022-08-09T18:23:05.253Z,32.50
2022-08-09T18:25:53.100Z,32.30
2022-08-09T18:30:35.368Z,32.30
2022-08-09T18:31:14.590Z,32.10
2022-08-09T18:33:53.414Z,32.00
2022-08-09T18:36:25.742Z,31.90
2022-08-09T18:39:02.651Z,31.80
2022-08-09T18:41:34.269Z,31.70
2022-08-09T18:44:11.347Z,31.60
2022-08-09T18:47:05.083Z,31.40
2022-08-09T18:49:43.302Z,31.30
2022-08-09T18:52:14.570Z,31.20
2022-08-09T18:54:52.482Z,31.10
2022-08-09T18:57:24.148Z,31.00
2022-08-09T19:00:11.668Z,30.90
2022-08-09T19:02:48.692Z,30.70
2022-08-09T19:05:49.013Z,30.60
2022-08-09T19:08:18.320Z,30.50
2022-08-09T19:10:47.869Z,30.40
2022-08-09T19:13:23.198Z,30.30
2022-08-09T19:16:04.565Z,30.20
2022-08-09T19:18:40.945Z,30.10
2022-08-09T19:21:14.523Z,30.00
2022-08-09T19:24:37.718Z,29.90
2022-08-09T19:26:37.160Z,29.80
2022-08-09T19:29:18.177Z,29.70
2022-08-09T19:31:51.620Z,29.60
2022-08-09T19:34:28.177Z,29.50
2022-08-09T19:36:59.137Z,29.40
2022-08-09T19:40:02.931Z,29.30
2022-08-09T19:42:27.203Z,29.20
2022-08-09T19:44:55.232Z,29.10
2022-08-09T19:47:22.755Z,29.00
2022-08-09T19:50:08.381Z,29.00
2022-08-09T19:52:49.661Z,28.90
2022-08-09T19:55:25.839Z,28.80
2022-08-09T19:57:58.040Z,28.70
2022-08-09T20:00:27.103Z,28.60
2022-08-09T20:04:10.484Z,28.60
2022-08-09T20:05:46.874Z,28.50
2022-08-09T20:08:24.858Z,28.40
2022-08-09T20:11:04.798Z,28.40
2022-08-09T20:13:37.539Z,28.30
2022-08-09T20:16:38.946Z,28.20
2022-08-09T20:19:42.247Z,28.20
2022-08-09T20:21:57.084Z,28.10
2022-08-09T20:24:31.836Z,28.10
2022-08-09T20:27:08.446Z,28.00
2022-08-09T20:29:38.656Z,27.90
2022-08-09T20:32:29.907Z,27.90
2022-08-09T20:35:02.293Z,27.80
2022-08-09T20:38:18.492Z,27.70
2022-08-09T20:40:26.577Z,27.70
2022-08-09T20:43:12.040Z,27.70
2022-08-09T20:45:59.498Z,27.60
2022-08-09T20:48:31.393Z,27.60
2022-08-09T20:51:01.400Z,27.50
2022-08-09T20:53:36.565Z,27.50
2022-08-09T20:56:21.069Z,27.40
2022-08-09T20:58:54.560Z,27.30
2022-08-09T21:01:34.954Z,27.30
2022-08-09T21:05:53.510Z,27.20
2022-08-09T21:07:11.498Z,27.20
2022-08-09T21:09:56.257Z,27.10
2022-08-09T21:15:23.827Z,27.00
2022-08-09T21:18:22.933Z,26.90
2022-08-09T21:20:54.212Z,26.80
2022-08-09T21:23:22.173Z,26.80
2022-08-09T21:26:11.506Z,26.70
2022-08-09T21:28:40.907Z,26.70
2022-08-09T21:31:22.430Z,26.60
2022-08-09T21:33:56.614Z,26.60
2022-08-09T21:36:28.861Z,26.50
2022-08-09T21:38:59.610Z,26.40
2022-08-09T21:42:04.788Z,26.40
2022-08-09T21:44:32.725Z,26.30
2022-08-09T21:47:09.096Z,26.30
2022-08-09T21:49:42.471Z,26.20
2022-08-09T21:52:20.262Z,26.20
2022-08-09T21:55:04.354Z,26.10
2022-08-09T21:57:39.048Z,26.10
2022-08-09T22:00:37.470Z,26.10
2022-08-09T22:03:07.878Z,26.00
2022-08-09T22:05:51.313Z,25.90
2022-08-09T22:08:18.848Z,25.90
2022-08-09T22:11:50.259Z,25.90
2022-08-09T22:13:37.092Z,25.80
2022-08-09T22:16:10.722Z,25.80
2022-08-09T22:18:52.295Z,25.70
2022-08-09T22:21:44.851Z,25.70
2022-08-09T22:24:17.181Z,25.70
2022-08-09T22:26:51.804Z,25.60
2022-08-09T22:29:28.994Z,25.50
2022-08-09T22:32:29.201Z,25.50
2022-08-09T22:35:06.611Z,25.50
2022-08-09T22:37:40.261Z,25.40
2022-08-09T22:40:18.224Z,25.40
2022-08-09T22:42:47.594Z,25.30
2022-08-09T22:48:14.400Z,25.30
2022-08-09T22:48:29.434Z,25.30
2022-08-09T22:50:53.995Z,25.20
2022-08-09T22:53:20.817Z,25.10
2022-08-09T22:56:29.998Z,25.10
2022-08-09T22:58:39.067Z,25.10
2022-08-09T23:01:07.045Z,25.10
2022-08-09T23:04:04.019Z,25.00
2022-08-09T23:06:32.635Z,25.00
2022-08-09T23:09:08.281Z,24.90
2022-08-09T23:11:37.562Z,24.90
2022-08-09T23:14:09.620Z,24.80
2022-08-09T23:16:39.615Z,24.80
2022-08-09T23:19:08.621Z,24.70
2022-08-09T23:21:37.002Z,24.70
2022-08-09T23:24:07.360Z,24.70
2022-08-09T23:26:40.731Z,24.60
2022-08-09T23:29:16.114Z,24.60
2022-08-09T23:31:43.039Z,24.60
2022-08-09T23:34:10.147Z,24.50
2022-08-09T23:36:39.659Z,24.50
2022-08-09T23:39:09.011Z,24.40
2022-08-09T23:41:38.471Z,24.40
2022-08-09T23:44:05.755Z,24.30
2022-08-09T23:46:35.594Z,24.30
2022-08-09T23:49:03.020Z,24.20
2022-08-09T23:51:30.378Z,24.20
2022-08-09T23:54:02.787Z,24.10
2022-08-09T23:56:52.860Z,24.10
2022-08-09T23:59:20.615Z,24.00
